Latest Coastal Weather Observations for Newcastle Nobbys

IDN60701

Issued at 11:41 pm EST Saturday 22 June 2024 (issued every 10 minutes, with the page automatically refreshed every 10 minutes)

About coastal observations | Map of coastal stations | Coastal observations for NSW | Marine services | Other Formats
Station Details ID: 061055 Name: NEWCASTLE NOBBYS SIGNAL STATION AWS Lat: -32.92 Lon: 151.80 Height: 33.0 m
Data from the previous 72 hours. | See also: Recent months at Newcastle Nobbys
Date/Time
EST
Wind Sea
Height
m
Swell Vis
km
Cloud Weather Temp
°C
Press
MSL
hPa
Rain since
9am
mm
Dir  Spd
kts
Gust
kts
Height
m
Period
s
Dir
22/11:30pm WSW 10 18 - - - - - - - 12.5 - 19.2
22/11:00pm WSW 8 14 - - - - - - - 12.4 - 19.2
22/10:30pm WSW 9 16 - - - - - - - 12.3 - 19.2
22/10:00pm SW 9 16 - - - - - - - 12.4 - 19.2
22/09:30pm SW 10 15 - - - - - - - 12.5 - 18.6
22/09:00pm WSW 10 17 - - - - - - Recent precip. 12.6 - 16.8
22/08:30pm WSW 11 16 - - - - - - - 12.6 - 16.8
22/08:00pm SW 10 16 - - - - - - - 12.3 - 13.8
22/07:30pm WSW 9 15 - - - - - - - 12.3 - 3.2
22/07:00pm WSW 9 12 - - - - - - - 12.6 - 2.6
22/06:30pm WSW 10 19 - - - - - - - 12.3 - 1.2
22/06:00pm WSW 12 20 - - - - - - - 12.8 - 0.6
22/05:30pm WSW 10 18 - - - - - - - 12.9 - 0.6
22/05:00pm SW 12 20 - - - - - - - 13.5 - 0.6
22/04:30pm SW 11 18 - - - - - - - 14.0 - 0.6
22/04:00pm SW 14 23 - - - - - - - 14.3 - 0.6
22/03:30pm WSW 9 14 - - - - - - - 13.8 - 0.6
22/03:00pm WSW 10 16 - - - - - - - 13.6 - 0.6
22/02:30pm WSW 10 16 - - - - - - - 12.9 - 0.6
22/02:00pm SW 10 18 - - - - - - - 12.7 - 0.6
22/01:30pm SW 13 20 - - - - - - - 12.6 - 0.6
22/01:00pm SW 14 24 - - - - - - - 12.6 - 0.6
22/12:39pm SW 16 27 - - - - - - - 13.4 - 0.0
22/12:30pm SW 16 23 - - - - - - - 13.7 - 0.0
22/12:00pm SW 13 22 - - - - - - - 14.0 - 0.0
22/11:30am SW 15 25 - - - - - - - 13.8 - 0.0
22/11:28am SW 15 25 - - - - - - - 13.9 - 0.0
22/11:00am WSW 11 17 - - - - - - - 13.6 - 0.0
22/10:30am WSW 12 19 - - - - - - - 13.4 - 0.0
22/10:00am WSW 11 18 - - - - - - - 13.0 - 0.0
22/09:30am WSW 8 14 - - - - - - - 12.4 - 0.0
22/09:00am WSW 11 18 - - - - - - - 12.0 - 3.0
22/08:30am NW 9 13 - - - - - - - 11.3 - 3.0
22/08:00am NW 8 10 - - - - - - - 9.8 - 3.0
22/07:30am WNW 6 10 - - - - - - - 9.4 - 3.0
22/07:00am NW 8 11 - - - - - - - 9.4 - 3.0
22/06:30am NW 6 8 - - - - - - - 9.1 - 3.0
22/06:00am NW 7 8 - - - - - - - 9.1 - 3.0
22/05:30am NW 9 12 - - - - - - - 9.4 - 3.0
22/05:00am WNW 9 13 - - - - - - - 9.8 - 3.0
22/04:30am WNW 9 12 - - - - - - - 9.5 - 3.0
22/04:00am NW 10 12 - - - - - - - 10.0 - 3.0
22/03:30am NW 9 12 - - - - - - - 9.9 - 3.0
22/03:00am WNW 9 12 - - - - - - - 10.5 - 3.0
22/02:30am W 9 14 - - - - - - - 11.6 - 3.0
22/02:00am WSW 8 12 - - - - - - - 11.6 - 3.0
22/01:30am WNW 9 11 - - - - - - - 10.4 - 3.0
22/01:00am WNW 8 10 - - - - - - - 10.3 - 3.0
22/12:30am NW 11 13 - - - - - - - 11.1 - 3.0
22/12:00am W 9 12 - - - - - - - 12.5 - 3.0
 
Date/Time
EST
Wind Sea
Height
m
Swell Vis
km
Cloud Weather Temp
°C
Press
MSL
hPa
Rain since
9am
mm
Dir  Spd
kts
Gust
kts
Height
m
Period
s
Dir
21/11:30pm WSW 7 11 - - - - - - - 12.7 - 3.0
21/11:00pm W 7 10 - - - - - - - 12.5 - 3.0
21/10:30pm W 6 8 - - - - - - - 12.7 - 3.0
21/10:00pm WSW 6 8 - - - - - - - 12.8 - 3.0
21/09:30pm W 5 6 - - - - - - - 12.6 - 3.0
21/09:00pm WNW 3 5 - - - - - - Recent precip. 13.5 - 3.0
21/08:30pm NW 4 7 - - - - - - - 13.6 - 3.0
21/08:00pm WNW 8 11 - - - - - - - 12.9 - 2.2
21/07:30pm WNW 6 7 - - - - - - - 12.8 - 2.2
21/07:00pm WNW 4 6 - - - - - - - 12.9 - 2.2
21/06:30pm WNW 5 6 - - - - - - - 12.9 - 2.2
21/06:00pm WNW 4 6 - - - - - - - 12.9 - 2.2
21/05:30pm WNW 5 6 - - - - - - - 13.3 - 2.2
21/05:00pm NNW 5 7 - - - - - - - 13.8 - 2.2
21/04:30pm SW 3 5 - - - - - - - 14.9 - 2.2
21/04:00pm SSE 7 9 - - - - - - - 14.6 - 2.2
21/03:30pm SSW 6 8 - - - - - - - 14.2 - 2.2
21/03:00pm W 7 10 - - - - - - Recent precip. 14.3 - 2.0
21/02:30pm SSW 7 10 - - - - - - - 16.0 - 0.0
21/02:00pm SSW 5 12 - - - - - - - 16.2 - 0.0
21/01:30pm W 5 8 - - - - - - - 17.3 - 0.0
21/01:00pm WNW 10 13 - - - - - - - 17.6 - 0.0
21/12:30pm WNW 9 13 - - - - - - - 18.8 - 0.0
21/12:00pm WNW 5 9 - - - - - - - 17.8 - 0.0
21/11:30am NW 8 10 - - - - - - - 17.0 - 0.0
21/11:00am NW 10 13 - - - - - - - 14.6 - 0.0
21/10:30am NW 11 16 - - - - - - - 14.3 - 0.0
21/10:00am NNW 13 17 - - - - - - - 14.7 - 0.0
21/09:30am NNW 14 18 - - - - - - - 13.4 - 0.0
21/09:00am NW 11 15 - - - - - - - 13.3 - 0.0
21/08:30am NW 9 10 - - - - - - - 12.2 - 0.0
21/08:00am NW 9 12 - - - - - - - 12.0 - 0.0
21/07:30am NNW 10 13 - - - - - - - 11.1 - 0.0
21/07:00am NW 12 15 - - - - - - - 10.7 - 0.0
21/06:30am NNW 9 11 - - - - - - - 10.3 - 0.0
21/06:00am NW 8 10 - - - - - - - 10.1 - 0.0
21/05:30am NNW 6 7 - - - - - - - 10.4 - 0.0
21/05:00am NW 4 7 - - - - - - - 10.8 - 0.0
21/04:30am NNW 7 9 - - - - - - - 11.1 - 0.0
21/04:00am NW 5 6 - - - - - - - 11.4 - 0.0
21/03:30am WNW 4 5 - - - - - - - 11.5 - 0.0
21/03:00am NW 6 8 - - - - - - - 10.9 - 0.0
21/02:30am WNW 6 7 - - - - - - - 10.7 - 0.0
21/02:00am NW 6 7 - - - - - - - 11.0 - 0.0
21/01:30am NNW 6 7 - - - - - - - 11.4 - 0.0
21/01:00am NNW 7 8 - - - - - - - 11.6 - 0.0
21/12:30am NW 5 7 - - - - - - - 11.2 - 0.0
21/12:00am WNW 5 6 - - - - - - - 11.2 - 0.0
 
Date/Time
EST
Wind Sea
Height
m
Swell Vis
km
Cloud Weather Temp
°C
Press
MSL
hPa
Rain since
9am
mm
Dir  Spd
kts
Gust
kts
Height
m
Period
s
Dir
20/11:30pm WNW 6 7 - - - - - - - 11.4 - 0.0
20/11:00pm NW 7 8 - - - - - - - 12.2 - 0.0
20/10:30pm NW 6 8 - - - - - - - 12.6 - 0.0
20/10:00pm NW 5 6 - - - - - - - 12.8 - 0.0
20/09:30pm NW 5 7 - - - - - - - 13.3 - 0.0
20/09:00pm NNW 4 6 - - - - - - - 13.6 - 0.0
20/08:30pm NNW 6 9 - - - - - - - 13.5 - 0.0
20/08:00pm N 5 6 - - - - - - - 13.9 - 0.0
20/07:30pm NNW 5 7 - - - - - - - 14.6 - 0.0
20/07:00pm N 8 9 - - - - - - - 14.5 - 0.0
20/06:30pm WNW 1 3 - - - - - - - 14.8 - 0.0
20/06:00pm NNW 2 3 - - - - - - - 14.8 - 0.0
20/05:30pm WNW 3 5 - - - - - - - 15.0 - 0.0
20/05:00pm WNW 4 5 - - - - - - - 15.3 - 0.0
20/04:30pm NW 7 9 - - - - - - - 15.9 - 0.0
20/04:00pm NW 8 10 - - - - - - - 16.4 - 0.0
20/03:30pm NW 9 12 - - - - - - - 17.6 - 0.0
20/03:00pm WNW 8 11 - - - - - - - 18.1 - 0.0
20/02:30pm NW 12 17 - - - - - - - 17.5 - 0.0
20/02:00pm NW 11 18 - - - - - - - 17.4 - 0.0
20/01:30pm WNW 11 16 - - - - - - - 18.1 - 0.0
20/01:00pm WNW 10 13 - - - - - - - 15.9 - 0.0
20/12:30pm NW 10 14 - - - - - - - 15.5 - 0.0
20/12:00pm NNW 12 15 - - - - - - - 15.1 - 0.0
20/11:30am NNW 11 15 - - - - - - - 14.8 - 0.0
20/11:00am NNW 10 13 - - - - - - - 13.8 - 0.0
20/10:30am NW 10 13 - - - - - - - 13.8 - 0.0
20/10:00am NW 9 11 - - - - - - - 12.6 - 0.0
20/09:30am NNW 9 11 - - - - - - - 11.9 - 0.0
20/09:00am NNW 9 11 - - - - - - - 11.6 - 0.0
20/08:30am NW 7 10 - - - - - - - 10.9 - 0.0
20/08:00am NW 8 10 - - - - - - - 9.7 - 0.0
20/07:30am NW 6 8 - - - - - - - 8.4 - 0.0
20/07:00am NW 7 9 - - - - - - - 8.2 - 0.0
20/06:30am NW 9 10 - - - - - - - 8.5 - 0.0
20/06:00am NW 7 10 - - - - - - - 8.8 - 0.0
20/05:30am NW 8 10 - - - - - - - 9.2 - 0.0
20/05:00am WNW 4 7 - - - - - - - 8.7 - 0.0
20/04:30am NW 8 9 - - - - - - - 8.8 - 0.0
20/04:00am NW 9 11 - - - - - - - 9.0 - 0.0
20/03:30am NW 6 7 - - - - - - - 8.2 - 0.0
20/03:00am WNW 5 7 - - - - - - - 8.4 - 0.0
20/02:30am NW 9 10 - - - - - - - 8.9 - 0.0
20/02:00am NW 7 9 - - - - - - - 8.7 - 0.0
20/01:30am NNW 8 11 - - - - - - - 9.2 - 0.0
20/01:00am NW 7 9 - - - - - - - 9.2 - 0.0
20/12:30am NW 7 9 - - - - - - - 9.4 - 0.0
20/12:00am NW 8 12 - - - - - - - 9.5 - 0.0

Other formats

Comma delimited format used in spreadsheet applications
http://www.bom.gov.au/fwo/IDN60701/IDN60701.94774.axf

JavaScript Object Notation format (JSON) in row-major order
http://www.bom.gov.au/fwo/IDN60701/IDN60701.94774.json

Data quality

Most of these data are generated automatically and are frequently updated. Quality checks on data are not normally performed. It is possible for incorrect values to appear. Refer to information at About Latest Weather Observations and please check the disclaimer before using these data.